Time;durP1;ratioP1;P1;durP2;ratioP2;P2;SDS_P1;SDS_P2;PMS_P1;PMS_P2;Temp;Humidity;BMP_temperature;BMP_pressure;BME280_temperature;BME280_humidity;BME280_pressure;Samples;Min_cycle;Max_cycle;Signal;HPM_P1;HPM_P2
2022/04/29 00:00:40;;;;;;;;;25.75;23.50;;;;;17.11;45.50;102424.59;4947351;28;45539;-57
2022/04/29 00:03:10;;;;;;;;;33.75;28.00;;;;;17.04;45.53;102439.22;4933789;28;45633;-58
2022/04/29 00:05:36;;;;;;;;;34.50;28.50;;;;;17.00;45.80;102424.41;4928611;28;47425;-57
2022/04/29 00:08:07;;;;;;;;;30.25;26.50;;;;;16.96;46.20;102431.69;4933205;28;45763;-56
2022/04/29 00:10:34;;;;;;;;;29.25;22.00;;;;;16.94;46.04;102422.09;4930528;28;45507;-56
2022/04/29 00:13:00;;;;;;;;;28.00;23.50;;;;;16.94;46.16;102430.09;4932042;28;45519;-54
2022/04/29 00:15:27;;;;;;;;;30.50;28.25;;;;;16.92;46.24;102422.19;4936780;28;45549;-57
2022/04/29 00:17:52;;;;;;;;;29.50;29.00;;;;;16.88;46.30;102425.13;4932262;28;45412;-57
2022/04/29 00:20:18;;;;;;;;;36.50;30.00;;;;;16.86;46.30;102409.25;4932105;28;45409;-56
2022/04/29 00:22:45;;;;;;;;;29.75;26.50;;;;;16.85;46.29;102404.00;4931941;28;45655;-56
2022/04/29 00:25:11;;;;;;;;;30.00;29.00;;;;;16.80;46.57;102406.94;4932113;28;45425;-57
2022/04/29 00:27:39;;;;;;;;;35.75;30.25;;;;;16.81;46.40;102402.47;4932205;28;45380;-57
2022/04/29 00:30:07;;;;;;;;;32.75;27.75;;;;;16.77;46.42;102391.16;4932811;28;45707;-56
2022/04/29 00:32:33;;;;;;;;;28.50;27.00;;;;;16.79;46.77;102396.38;4938795;28;45513;-58
2022/04/29 00:34:58;;;;;;;;;39.25;30.25;;;;;16.77;46.87;102391.16;4933333;28;46123;-56
2022/04/29 00:37:24;;;;;;;;;35.75;31.75;;;;;16.72;46.50;102393.22;4932226;28;45335;-56
2022/04/29 00:39:50;;;;;;;;;29.00;25.25;;;;;16.66;46.87;102394.41;4931715;28;45809;-58
2022/04/29 00:42:18;;;;;;;;;29.00;26.00;;;;;16.64;46.67;102392.78;4932239;28;45392;-56
2022/04/29 00:44:45;;;;;;;;;34.00;28.50;;;;;16.61;46.92;102385.84;4934226;28;45446;-56
2022/04/29 00:47:20;;;;;;;;;29.25;27.25;;;;;16.60;46.96;102389.47;4934090;28;45648;-55
2022/04/29 00:49:46;;;;;;;;;36.75;30.00;;;;;16.59;46.90;102390.41;4926585;28;45598;-57
2022/04/29 00:52:18;;;;;;;;;35.25;29.00;;;;;16.57;47.03;102380.78;4937407;28;45500;-56
2022/04/29 00:54:50;;;;;;;;;39.00;35.25;;;;;16.58;47.07;102383.34;4933896;28;45691;-57
2022/04/29 00:57:22;;;;;;;;;31.25;29.50;;;;;16.58;47.18;102383.34;4941274;28;45434;-57
2022/04/29 01:00:03;;;;;;;;;31.75;29.75;;;;;16.56;46.91;102377.25;4936433;28;45368;-58
2022/04/29 01:02:29;;;;;;;;;28.75;24.50;;;;;16.52;46.82;102374.88;4934872;28;45565;-57
2022/04/29 01:05:09;;;;;;;;;32.00;25.75;;;;;16.47;47.28;102369.81;4935320;28;46047;-56
2022/04/29 01:07:36;;;;;;;;;37.75;31.25;;;;;16.45;47.07;102369.91;4936602;28;45774;-56
2022/04/29 01:10:04;;;;;;;;;31.25;27.25;;;;;16.38;47.08;102362.38;4935233;28;45593;-57
2022/04/29 01:12:34;;;;;;;;;34.50;28.75;;;;;16.33;47.20;102367.94;4935301;28;45551;-56
2022/04/29 01:15:05;;;;;;;;;36.75;30.50;;;;;16.28;47.41;102364.72;4933288;28;45372;-57
2022/04/29 01:17:34;;;;;;;;;35.50;28.25;;;;;16.27;47.52;102367.44;4936851;28;45398;-57
2022/04/29 01:20:10;;;;;;;;;36.75;26.25;;;;;16.24;47.31;102362.31;4934312;28;45815;-57
2022/04/29 01:22:36;;;;;;;;;31.50;28.25;;;;;16.19;47.34;102355.47;4937841;28;45736;-57
2022/04/29 01:25:03;;;;;;;;;36.75;31.50;;;;;16.16;47.57;102358.28;4934185;28;46077;-57
2022/04/29 01:27:29;;;;;;;;;30.75;30.00;;;;;16.13;47.42;102353.16;4934634;28;45459;-57
2022/04/29 01:30:03;;;;;;;;;33.50;27.50;;;;;16.09;47.70;102351.59;4935071;28;45677;-57
2022/04/29 01:32:32;;;;;;;;;33.25;31.75;;;;;16.06;47.58;102340.31;4939494;28;45540;-55
2022/04/29 01:34:58;;;;;;;;;31.50;31.00;;;;;16.02;47.78;102341.41;4926212;28;45519;-56
2022/04/29 01:37:23;;;;;;;;;33.50;31.50;;;;;15.99;47.62;102350.41;4936986;28;45492;-56
2022/04/29 01:39:49;;;;;;;;;30.50;27.75;;;;;15.98;47.67;102355.81;4934161;28;45619;-56
2022/04/29 01:42:14;;;;;;;;;31.50;27.50;;;;;15.97;48.02;102351.47;4934654;28;45400;-57
2022/04/29 01:44:40;;;;;;;;;33.75;30.00;;;;;15.95;47.87;102351.53;4934462;28;45300;-56
2022/04/29 01:47:05;;;;;;;;;36.00;28.50;;;;;15.94;47.97;102357.78;4934779;28;46181;-56
2022/04/29 01:49:31;;;;;;;;;33.25;28.75;;;;;15.88;47.80;102351.03;4934417;28;45363;-57
2022/04/29 01:51:57;;;;;;;;;33.75;28.75;;;;;15.84;47.91;102348.63;4934745;28;45497;-56
2022/04/29 01:54:23;;;;;;;;;52.25;42.25;;;;;15.83;48.05;102349.56;4934491;28;45717;-56
2022/04/29 01:56:52;;;;;;;;;39.50;30.50;;;;;15.83;47.98;102347.75;4939152;28;45725;-57
2022/04/29 01:59:19;;;;;;;;;37.00;30.50;;;;;15.83;47.99;102344.25;4933985;28;45433;-56
2022/04/29 02:01:46;;;;;;;;;35.25;26.25;;;;;15.80;48.01;102349.72;4934933;28;45569;-56
2022/04/29 02:04:13;;;;;;;;;31.75;31.25;;;;;15.73;48.15;102354.53;4934130;28;46074;-57
2022/04/29 02:06:38;;;;;;;;;38.00;29.25;;;;;15.70;48.17;102352.03;4933947;28;45831;-56
2022/04/29 02:09:05;;;;;;;;;30.00;27.50;;;;;15.71;48.07;102360.84;4934355;28;45519;-56
2022/04/29 02:11:31;;;;;;;;;34.75;32.00;;;;;15.73;48.67;102362.50;4934241;28;45520;-58
2022/04/29 02:13:57;;;;;;;;;36.00;29.75;;;;;15.74;48.76;102366.88;4934196;28;46007;-56
2022/04/29 02:16:22;;;;;;;;;30.00;29.00;;;;;15.75;48.57;102373.91;4935000;28;45463;-58
2022/04/29 02:18:48;;;;;;;;;31.00;26.50;;;;;15.71;48.70;102374.13;4933492;28;45400;-56
2022/04/29 02:21:14;;;;;;;;;35.75;33.25;;;;;15.68;48.72;102369.00;4934089;28;45498;-56
2022/04/29 02:23:40;;;;;;;;;35.25;29.50;;;;;15.63;48.52;102367.44;4933988;28;45463;-55
2022/04/29 02:26:05;;;;;;;;;36.25;30.75;;;;;15.60;48.75;102364.94;4934235;28;45424;-57
2022/04/29 02:28:32;;;;;;;;;37.25;30.50;;;;;15.57;48.82;102366.91;4933644;28;45517;-57
2022/04/29 02:30:59;;;;;;;;;33.50;29.75;;;;;15.55;48.78;102374.09;4935573;28;45772;-56
2022/04/29 02:33:25;;;;;;;;;43.50;30.25;;;;;15.50;48.79;102376.16;4936625;28;45961;-58
2022/04/29 02:35:50;;;;;;;;;42.00;34.25;;;;;15.47;48.87;102374.50;4935216;28;45395;-58
2022/04/29 02:38:16;;;;;;;;;32.75;29.00;;;;;15.46;49.10;102370.13;4933891;28;45910;-56
2022/04/29 02:40:42;;;;;;;;;31.50;27.00;;;;;15.48;49.14;102370.03;4934389;28;45492;-56
2022/04/29 02:43:07;;;;;;;;;31.25;25.75;;;;;15.49;49.04;102374.44;4933212;28;45345;-56
2022/04/29 02:45:33;;;;;;;;;34.50;30.00;;;;;15.48;48.95;102370.94;4933764;28;45449;-59
2022/04/29 02:47:59;;;;;;;;;39.75;31.50;;;;;15.53;49.05;102373.31;4933856;28;45344;-56
2022/04/29 02:50:25;;;;;;;;;33.50;30.00;;;;;15.54;49.08;102385.66;4934159;28;45587;-56
2022/04/29 02:52:51;;;;;;;;;52.00;37.50;;;;;15.49;48.88;102369.97;4933050;28;45586;-56
2022/04/29 02:55:16;;;;;;;;;32.25;29.75;;;;;15.44;49.30;102373.81;4934025;28;45669;-57
2022/04/29 02:57:42;;;;;;;;;40.75;32.50;;;;;15.41;49.17;102374.00;4938696;28;45467;-56
2022/04/29 03:00:08;;;;;;;;;34.75;29.00;;;;;15.38;48.94;102372.34;4933643;28;45536;-56
2022/04/29 03:02:34;;;;;;;;;39.50;31.75;;;;;15.36;49.17;102369.78;4933534;28;45585;-56
2022/04/29 03:04:59;;;;;;;;;44.00;33.50;;;;;15.39;49.13;102362.56;4934690;28;45494;-56
2022/04/29 03:07:24;;;;;;;;;48.75;40.25;;;;;15.36;49.27;102369.78;4932566;28;45760;-55
2022/04/29 03:09:50;;;;;;;;;38.50;29.25;;;;;15.32;49.40;102362.03;4933346;28;45567;-57
2022/04/29 03:12:16;;;;;;;;;37.50;31.25;;;;;15.33;49.37;102363.78;4933340;28;45968;-56
2022/04/29 03:14:41;;;;;;;;;35.00;30.75;;;;;15.34;49.29;102362.84;4934340;28;45664;-57
2022/04/29 03:18:17;;;;;;;;;37.25;32.00;;;;;15.32;49.41;102359.38;4932588;28;45514;-57
2022/04/29 03:19:53;;;;;;;;;37.25;32.25;;;;;15.34;49.46;102366.34;4932169;28;45455;-57
2022/04/29 03:22:18;;;;;;;;;39.25;32.25;;;;;15.35;49.18;102359.22;4933562;28;45574;-57
2022/04/29 03:24:44;;;;;;;;;29.50;27.25;;;;;15.34;49.19;102362.84;4932825;28;45598;-56
2022/04/29 03:27:09;;;;;;;;;36.50;31.00;;;;;15.28;49.26;102357.84;4932270;28;45299;-57
2022/04/29 03:29:35;;;;;;;;;42.00;33.25;;;;;15.30;49.52;102358.59;4932564;28;45417;-57
2022/04/29 03:32:00;;;;;;;;;37.00;31.50;;;;;15.30;49.26;102353.31;4936159;28;46082;-57
2022/04/29 03:34:26;;;;;;;;;43.25;34.00;;;;;15.31;49.36;102353.22;4936195;28;45632;-56
2022/04/29 03:36:52;;;;;;;;;34.75;31.50;;;;;15.27;49.59;102357.00;4934239;28;45615;-57
2022/04/29 03:39:18;;;;;;;;;33.75;31.25;;;;;15.21;49.53;102344.03;4932939;28;45814;-57
2022/04/29 03:41:45;;;;;;;;;34.50;31.75;;;;;15.21;49.71;102349.34;4932795;28;46065;-57
2022/04/29 03:44:11;;;;;;;;;37.75;26.50;;;;;15.19;49.67;102343.25;4932515;28;45669;-57
2022/04/29 03:46:36;;;;;;;;;36.00;32.25;;;;;15.17;49.34;102337.19;4933219;28;45390;-56
2022/04/29 03:51:46;;;;;;;;;39.75;32.25;;;;;15.11;49.68;102326.88;4934538;28;45530;-56
2022/04/29 03:54:11;;;;;;;;;34.50;32.00;;;;;15.08;49.69;102327.88;4932388;28;45469;-57
2022/04/29 03:56:37;;;;;;;;;37.50;31.00;;;;;15.05;49.63;102320.09;4940559;28;45619;-57
2022/04/29 03:59:02;;;;;;;;;39.00;33.75;;;;;15.07;49.51;102320.88;4932358;28;45465;-57
2022/04/29 04:01:29;;;;;;;;;36.75;32.25;;;;;15.03;49.44;102323.78;4934265;28;46207;-57
2022/04/29 04:03:55;;;;;;;;;36.75;31.25;;;;;14.99;49.74;102322.22;4939812;28;45667;-56
2022/04/29 04:09:05;;;;;;;;;39.75;30.75;;;;;14.93;49.99;102335.78;4932897;28;45391;-57
2022/04/29 04:11:30;;;;;;;;;35.50;32.00;;;;;14.93;49.95;102312.81;4932222;28;45745;-57
2022/04/29 04:13:56;;;;;;;;;37.75;32.50;;;;;14.95;50.33;102325.97;4932445;28;45346;-57
2022/04/29 04:16:23;;;;;;;;;30.75;28.50;;;;;14.98;50.26;102328.47;4932927;28;45424;-57
2022/04/29 04:18:50;;;;;;;;;34.50;32.00;;;;;15.02;50.00;102324.72;4932188;28;45522;-57
2022/04/29 04:21:15;;;;;;;;;35.25;31.75;;;;;15.04;49.82;102323.69;4932159;28;46362;-57
2022/04/29 04:23:40;;;;;;;;;40.00;31.75;;;;;15.01;50.27;102321.22;4932316;28;45561;-57
2022/04/29 04:26:06;;;;;;;;;34.00;29.00;;;;;15.05;50.55;102327.19;4932276;28;45714;-57
2022/04/29 04:28:31;;;;;;;;;32.50;26.00;;;;;15.04;50.14;102329.00;4932191;28;45848;-57
2022/04/29 04:30:57;;;;;;;;;41.50;32.75;;;;;15.05;50.27;102319.25;4946499;28;46138;-58
2022/04/29 04:33:22;;;;;;;;;36.25;31.50;;;;;15.02;50.04;102319.41;4936655;28;45788;-57
2022/04/29 04:35:48;;;;;;;;;33.00;28.25;;;;;14.99;50.09;102327.53;4934032;28;45547;-57
2022/04/29 04:38:14;;;;;;;;;29.00;24.50;;;;;14.95;50.48;102326.84;4914676;28;45620;-57
2022/04/29 04:40:40;;;;;;;;;41.50;32.50;;;;;14.90;50.13;102320.91;4931765;28;45459;-56
2022/04/29 04:43:06;;;;;;;;;40.50;32.50;;;;;14.89;50.31;102334.25;4931907;28;45587;-57
2022/04/29 04:45:32;;;;;;;;;37.00;32.00;;;;;14.89;50.46;102326.28;4914835;28;45796;-58
2022/04/29 04:47:57;;;;;;;;;32.00;30.50;;;;;14.90;50.00;102331.50;4934323;28;45504;-58
2022/04/29 04:50:23;;;;;;;;;34.00;30.25;;;;;14.90;50.14;102336.81;4932588;28;46101;-58
2022/04/29 04:52:48;;;;;;;;;36.00;32.50;;;;;14.88;49.90;102329.88;4930959;28;45602;-58
2022/04/29 04:55:14;;;;;;;;;37.25;30.00;;;;;14.88;49.93;102335.19;4931869;28;45484;-57
2022/04/29 04:57:39;;;;;;;;;34.50;27.75;;;;;14.86;49.75;102337.94;4931785;28;45457;-58
2022/04/29 05:00:06;;;;;;;;;37.25;30.25;;;;;14.84;49.83;102334.47;4932162;28;45992;-57
2022/04/29 05:02:31;;;;;;;;;35.25;27.75;;;;;14.81;49.84;102334.66;4931259;28;45471;-58
2022/04/29 05:04:57;;;;;;;;;33.50;26.75;;;;;14.81;49.85;102332.00;4931865;28;45699;-58
2022/04/29 05:07:23;;;;;;;;;30.50;27.00;;;;;14.84;49.81;102338.94;4931695;28;45348;-58
2022/04/29 05:09:49;;;;;;;;;37.50;30.00;;;;;14.84;49.75;102339.78;4931472;28;45392;-58
2022/04/29 05:12:14;;;;;;;;;33.25;29.00;;;;;14.85;49.47;102341.53;4931505;28;45298;-59
2022/04/29 05:14:40;;;;;;;;;32.00;27.00;;;;;14.85;49.79;102337.97;4933205;28;45676;-58
2022/04/29 05:17:06;;;;;;;;;30.00;27.00;;;;;14.87;49.42;102336.13;4913673;28;45645;-57
2022/04/29 05:19:31;;;;;;;;;34.50;31.50;;;;;14.85;49.52;102345.94;4931434;28;45952;-58
2022/04/29 05:21:56;;;;;;;;;33.00;24.50;;;;;14.86;49.54;102339.72;4931338;28;45396;-57
2022/04/29 05:24:22;;;;;;;;;39.50;30.50;;;;;14.87;49.62;102339.66;4932876;28;45678;-57
2022/04/29 05:26:48;;;;;;;;;34.50;27.50;;;;;14.88;49.70;102343.16;4930502;28;45544;-58
2022/04/29 05:29:13;;;;;;;;;31.00;27.75;;;;;14.92;49.75;102345.56;4930202;28;46253;-58
2022/04/29 05:31:41;;;;;;;;;38.00;31.00;;;;;14.96;49.39;102346.25;4933975;28;45446;-58
2022/04/29 05:34:06;;;;;;;;;33.50;32.00;;;;;14.98;49.25;102347.91;4934542;28;45466;-58
2022/04/29 05:36:35;;;;;;;;;37.00;27.25;;;;;14.99;49.64;102357.56;4930597;28;45533;-58
2022/04/29 05:44:29;;;;;;;;;31.75;30.25;;;;;14.99;49.56;102365.53;4935589;28;45430;-58
2022/04/29 05:46:55;;;;;;;;;39.50;30.25;;;;;14.99;49.46;102367.31;4936503;28;45463;-58
2022/04/29 05:49:20;;;;;;;;;38.25;32.25;;;;;14.97;49.25;102364.75;4932428;28;45521;-57
2022/04/29 05:51:45;;;;;;;;;36.25;27.25;;;;;14.98;49.19;102365.63;4935051;28;45516;-57
2022/04/29 05:54:11;;;;;;;;;35.50;27.25;;;;;14.99;49.27;102368.19;4934004;28;45446;-57
2022/04/29 05:56:36;;;;;;;;;31.00;28.50;;;;;15.03;49.53;102374.19;4938059;28;45573;-57
2022/04/29 05:59:02;;;;;;;;;33.25;26.25;;;;;15.06;49.29;102382.00;4932060;28;46438;-57
2022/04/29 06:01:28;;;;;;;;;34.00;28.50;;;;;15.07;49.19;102375.75;4933603;28;45495;-58
2022/04/29 06:03:53;;;;;;;;;33.75;28.00;;;;;15.07;49.58;102376.59;4931973;28;45421;-58
2022/04/29 06:06:19;;;;;;;;;40.00;32.00;;;;;15.08;50.07;102383.63;4936294;28;45464;-57
2022/04/29 06:08:45;;;;;;;;;32.25;30.25;;;;;15.09;49.73;102381.84;4944418;28;45582;-58
2022/04/29 06:11:10;;;;;;;;;34.25;29.50;;;;;15.10;49.79;102388.03;4941561;28;45360;-57
2022/04/29 06:13:37;;;;;;;;;43.00;35.00;;;;;15.08;49.76;102388.06;4933743;28;45490;-57
2022/04/29 06:16:04;;;;;;;;;38.00;30.50;;;;;15.00;49.91;102387.63;4935521;28;45413;-58
2022/04/29 06:18:32;;;;;;;;;40.75;34.25;;;;;14.99;49.95;102393.84;4933663;28;46538;-57
2022/04/29 06:20:58;;;;;;;;;21.25;17.75;;;;;15.01;49.77;102397.31;4935418;28;45782;-57
2022/04/29 06:23:24;;;;;;;;;35.50;32.00;;;;;15.00;49.82;102395.56;4947451;28;45732;-58
2022/04/29 06:25:49;;;;;;;;;33.75;28.75;;;;;14.99;49.70;102392.06;4936719;28;45609;-58
2022/04/29 06:28:15;;;;;;;;;42.00;33.00;;;;;15.01;49.92;102390.22;4933953;28;46073;-58
2022/04/29 06:30:41;;;;;;;;;37.75;29.50;;;;;15.07;49.99;102396.97;4934942;28;45828;-58
2022/04/29 06:33:07;;;;;;;;;42.00;32.25;;;;;15.05;49.88;102397.06;4941003;28;45598;-58
2022/04/29 06:35:35;;;;;;;;;37.00;33.25;;;;;15.07;50.14;102405.78;4937691;28;45719;-58
2022/04/29 06:38:00;;;;;;;;;46.50;30.75;;;;;15.12;50.16;102413.53;4938378;28;45504;-58
2022/04/29 06:40:27;;;;;;;;;38.75;32.50;;;;;15.10;49.90;102412.75;4940583;28;45376;-58
2022/04/29 06:42:53;;;;;;;;;37.00;29.50;;;;;15.10;49.94;102409.25;4938107;28;45389;-57
2022/04/29 06:45:18;;;;;;;;;40.25;34.50;;;;;15.06;50.64;102406.75;4942161;28;45698;-58
2022/04/29 06:47:44;;;;;;;;;35.50;32.00;;;;;15.05;50.59;102393.56;4943727;28;45743;-58
2022/04/29 06:50:12;;;;;;;;;39.75;32.25;;;;;15.06;50.32;102397.91;4943948;28;45392;-58
2022/04/29 06:52:37;;;;;;;;;36.25;28.75;;;;;15.01;50.35;102395.53;4943609;28;45405;-57
2022/04/29 06:55:04;;;;;;;;;37.25;31.50;;;;;14.98;50.67;102394.81;4944077;28;45210;-57
2022/04/29 06:57:30;;;;;;;;;50.25;35.00;;;;;15.00;50.46;102385.81;4943782;28;45577;-56
2022/04/29 06:59:56;;;;;;;;;45.00;32.00;;;;;15.00;50.67;102393.78;4943743;28;45161;-57
2022/04/29 07:02:24;;;;;;;;;41.75;33.75;;;;;15.03;50.45;102398.09;4944050;28;45474;-58
2022/04/29 07:04:50;;;;;;;;;41.00;32.25;;;;;15.05;50.66;102406.81;4940522;28;45522;-58
2022/04/29 07:07:16;;;;;;;;;39.50;32.25;;;;;15.05;50.34;102406.81;4941733;28;46167;-58
2022/04/29 07:09:43;;;;;;;;;39.50;33.00;;;;;15.03;50.29;102395.44;4936917;28;45530;-58
2022/04/29 07:12:09;;;;;;;;;43.50;36.50;;;;;15.02;50.31;102420.25;4957225;28;45370;-56
2022/04/29 07:14:35;;;;;;;;;37.00;32.75;;;;;14.95;50.75;102422.38;4943528;28;45495;-58
2022/04/29 07:17:00;;;;;;;;;49.75;37.00;;;;;14.94;50.80;102431.25;4943211;28;46273;-58
2022/04/29 07:19:26;;;;;;;;;41.50;36.50;;;;;14.97;51.07;102428.44;4943169;28;45324;-58
2022/04/29 07:21:52;;;;;;;;;43.50;34.75;;;;;14.99;50.99;102417.75;4943139;28;45431;-58
2022/04/29 07:24:18;;;;;;;;;46.50;35.75;;;;;15.04;51.40;102418.38;4943580;28;45480;-58
2022/04/29 07:26:44;;;;;;;;;43.25;36.25;;;;;15.06;51.38;102416.50;4940228;28;45475;-58
2022/04/29 07:29:10;;;;;;;;;43.75;36.50;;;;;15.08;51.51;102412.81;4943220;28;45587;-58
2022/04/29 07:31:35;;;;;;;;;45.25;36.00;;;;;15.11;51.43;102418.94;4943234;28;45370;-58
2022/04/29 07:34:01;;;;;;;;;47.25;35.25;;;;;15.10;51.63;102418.06;4943002;28;45359;-58
2022/04/29 07:41:55;;;;;;;;;48.25;40.00;;;;;14.87;52.43;102424.53;4941264;28;45555;-58
2022/04/29 07:44:20;;;;;;;;;48.75;37.25;;;;;14.88;52.51;102430.72;4943364;28;45647;-58
2022/04/29 07:46:48;;;;;;;;;51.00;39.00;;;;;14.91;52.45;102427.88;4941914;28;46044;-59
2022/04/29 07:49:14;;;;;;;;;51.75;39.50;;;;;14.90;52.33;102429.69;4942654;28;45503;-58
2022/04/29 07:51:41;;;;;;;;;49.50;41.00;;;;;14.95;52.66;102426.81;4942898;28;45396;-58
2022/04/29 07:54:07;;;;;;;;;54.75;42.25;;;;;15.00;52.29;102422.13;4946427;28;45260;-58
2022/04/29 07:56:33;;;;;;;;;49.50;37.75;;;;;15.02;52.55;102422.91;4942175;28;45475;-58
2022/04/29 07:58:59;;;;;;;;;53.75;43.00;;;;;15.03;52.45;102419.31;4936962;28;46473;-57
2022/04/29 08:01:26;;;;;;;;;48.75;40.25;;;;;15.07;52.24;102427.03;4922282;28;45382;-57
2022/04/29 08:03:55;;;;;;;;;47.75;37.75;;;;;15.18;52.49;102428.28;4939326;28;45425;-57
2022/04/29 08:06:21;;;;;;;;;47.00;39.75;;;;;15.26;51.87;102426.97;4939197;28;46071;-57
2022/04/29 08:08:47;;;;;;;;;50.25;38.00;;;;;15.27;52.09;102427.81;4942544;28;45266;-57
2022/04/29 08:11:15;;;;;;;;;44.25;37.50;;;;;15.31;51.94;102424.91;4942953;28;45337;-58
2022/04/29 08:13:44;;;;;;;;;54.25;41.75;;;;;15.38;51.80;102422.78;4942674;28;45491;-58
2022/04/29 08:16:14;;;;;;;;;47.00;38.00;;;;;15.43;51.78;102428.72;4942689;28;45536;-58
2022/04/29 08:18:40;;;;;;;;;48.75;40.50;;;;;15.44;51.98;102438.41;4942221;28;45324;-58
2022/04/29 08:21:06;;;;;;;;;54.50;42.75;;;;;15.54;52.15;102444.94;4942640;28;45335;-58
2022/04/29 08:23:32;;;;;;;;;55.00;43.25;;;;;15.63;51.97;102433.00;4942931;28;45378;-58
2022/04/29 08:25:57;;;;;;;;;50.25;41.00;;;;;15.74;51.88;102435.97;4942443;28;46083;-58
2022/04/29 08:28:23;;;;;;;;;55.25;42.00;;;;;15.85;51.57;102443.34;4942749;28;45402;-57
2022/04/29 08:30:49;;;;;;;;;54.75;44.25;;;;;15.87;51.65;102428.16;4942463;28;45161;-57
2022/04/29 08:33:15;;;;;;;;;52.00;41.25;;;;;15.86;51.50;102431.75;4942224;28;45185;-58
2022/04/29 08:35:42;;;;;;;;;53.50;41.00;;;;;15.89;51.97;102431.63;4942175;28;45478;-58
2022/04/29 08:38:11;;;;;;;;;53.50;37.75;;;;;15.90;51.65;102433.31;4942494;28;45366;-58
2022/04/29 08:40:42;;;;;;;;;53.00;43.50;;;;;15.91;51.06;102437.69;4942058;28;45432;-58
2022/04/29 08:43:13;;;;;;;;;49.75;40.00;;;;;15.91;51.57;102432.38;4942621;28;45360;-58
2022/04/29 08:45:40;;;;;;;;;56.50;41.75;;;;;15.96;51.57;102425.03;4942309;28;45367;-58
2022/04/29 08:48:05;;;;;;;;;51.75;40.00;;;;;16.07;51.28;102443.03;4941795;28;45230;-57
2022/04/29 08:50:31;;;;;;;;;56.50;42.50;;;;;16.14;51.31;102452.38;4940460;28;45361;-58
2022/04/29 08:52:57;;;;;;;;;52.50;42.25;;;;;16.21;50.61;102440.47;4924791;28;45276;-59
2022/04/29 09:00:58;;;;;;;;;53.75;41.00;;;;;16.54;50.92;102440.34;4941135;28;45563;-58
2022/04/29 09:03:23;;;;;;;;;51.00;43.00;;;;;16.61;50.40;102435.53;4936296;28;45299;-59
2022/04/29 09:05:50;;;;;;;;;52.00;40.00;;;;;16.64;50.34;102435.34;4939834;28;45188;-58
2022/04/29 09:08:18;;;;;;;;;56.00;42.00;;;;;16.71;50.32;102431.44;4939815;28;45520;-58
2022/04/29 09:10:58;;;;;;;;;50.50;39.25;;;;;16.84;49.99;102428.91;4939675;28;45423;-58
2022/04/29 09:13:29;;;;;;;;;50.75;40.00;;;;;16.95;49.91;102427.31;4941900;28;45403;-58
2022/04/29 09:15:59;;;;;;;;;53.50;41.75;;;;;17.13;49.80;102428.03;4941929;28;45373;-57
2022/04/29 09:18:32;;;;;;;;;55.00;42.00;;;;;17.23;49.53;102421.22;4927093;28;45316;-65
2022/04/29 09:20:58;;;;;;;;;49.25;40.75;;;;;17.27;48.96;102420.06;4942978;28;45461;-60
2022/04/29 09:23:28;;;;;;;;;47.75;38.75;;;;;17.32;49.11;102424.28;4945293;28;45278;-61
2022/04/29 09:25:56;;;;;;;;;48.50;40.25;;;;;17.39;49.57;102418.47;4927722;28;46580;-65
2022/04/29 09:28:24;;;;;;;;;53.00;41.25;;;;;17.48;48.96;102422.38;4939486;28;45492;-65
2022/04/29 09:30:54;;;;;;;;;51.75;41.75;;;;;17.58;49.10;102412.88;4927512;28;45421;-60
2022/04/29 09:33:22;;;;;;;;;52.75;39.50;;;;;17.69;48.39;102415.69;4927655;28;45384;-71
2022/04/29 09:35:51;;;;;;;;;46.75;38.25;;;;;17.77;48.57;102405.47;4943994;28;46121;-64
2022/04/29 09:41:02;;;;;;;;;43.25;36.50;;;;;17.94;48.27;102414.22;4944807;28;45255;-59
2022/04/29 09:43:36;;;;;;;;;47.00;37.00;;;;;18.01;47.78;102410.19;4945234;28;45494;-63
2022/04/29 09:46:16;;;;;;;;;54.00;40.00;;;;;18.09;47.97;102410.56;4944781;28;46014;-65
2022/04/29 09:48:55;;;;;;;;;43.00;33.75;;;;;18.12;46.98;102410.38;4944618;28;45357;-66
2022/04/29 09:51:46;;;;;;;;;46.75;37.50;;;;;18.15;47.11;102410.16;4943707;28;45304;-66
2022/04/29 09:54:15;;;;;;;;;48.25;36.00;;;;;18.26;47.05;102405.00;4942097;28;45251;-65
2022/04/29 09:56:41;;;;;;;;;43.75;36.75;;;;;18.28;46.55;102405.75;4944512;28;45395;-66
2022/04/29 09:59:08;;;;;;;;;47.00;37.25;;;;;18.32;46.66;102406.38;4943355;28;45237;-67
2022/04/29 10:01:33;;;;;;;;;47.50;36.50;;;;;18.43;46.91;102403.88;4938847;28;45359;-63
2022/04/29 10:04:02;;;;;;;;;47.50;37.50;;;;;18.60;47.24;102405.44;4941025;28;45410;-66
2022/04/29 10:06:29;;;;;;;;;48.75;36.00;;;;;18.73;46.50;102403.69;4943249;28;46163;-65
2022/04/29 10:08:58;;;;;;;;;41.75;35.25;;;;;18.81;46.32;102406.72;4943955;28;45271;-67
2022/04/29 10:11:27;;;;;;;;;44.25;36.25;;;;;18.86;46.60;102407.22;4944731;28;45336;-67
2022/04/29 10:13:53;;;;;;;;;44.00;37.25;;;;;18.93;46.67;102405.00;4944389;28;45493;-67
2022/04/29 10:16:22;;;;;;;;;51.75;39.25;;;;;18.97;46.42;102406.53;4944390;28;46375;-68
2022/04/29 10:22:00;;;;;;;;;48.75;38.75;;;;;18.90;46.17;102411.41;4944144;28;45483;-63
2022/04/29 10:24:28;;;;;;;;;46.75;35.25;;;;;18.96;45.75;102411.00;4944611;28;45475;-62
2022/04/29 10:26:54;;;;;;;;;43.50;33.50;;;;;18.96;45.48;102399.47;4943828;28;45756;-62
2022/04/29 10:29:20;;;;;;;;;42.75;35.75;;;;;18.91;46.05;102399.78;4943466;28;45433;-66
2022/04/29 10:32:06;;;;;;;;;45.25;35.75;;;;;18.92;46.42;102401.47;4944025;28;45514;-72
2022/04/29 10:34:32;;;;;;;;;48.25;37.75;;;;;18.94;45.98;102404.91;4943989;28;45589;-73
2022/04/29 10:36:58;;;;;;;;;44.50;35.00;;;;;18.93;45.70;102410.34;4943942;28;45269;-73
2022/04/29 10:39:24;;;;;;;;;47.75;40.25;;;;;18.96;46.17;102402.16;4943529;28;45168;-74
2022/04/29 10:42:02;;;;;;;;;45.50;38.00;;;;;18.99;45.53;102401.91;4926385;28;45486;-73
2022/04/29 10:44:28;;;;;;;;;47.75;37.50;;;;;19.07;45.58;102394.25;4943285;28;45239;-74
2022/04/29 10:46:54;;;;;;;;;46.00;37.00;;;;;19.15;45.52;102397.25;4927541;28;47784;-73
2022/04/29 10:49:27;;;;;;;;;45.50;36.00;;;;;19.17;45.03;102395.31;4926043;28;45419;-69
2022/04/29 10:51:59;;;;;;;;;41.25;34.00;;;;;19.20;44.64;102388.91;4925143;28;45395;-69
2022/04/29 10:54:45;;;;;;;;;37.50;32.25;;;;;19.25;44.58;102392.97;4943885;28;45412;-69
2022/04/29 10:57:14;;;;;;;;;40.00;34.00;;;;;19.31;44.49;102382.81;4943304;28;46179;-70
2022/04/29 11:00:00;;;;;;;;;36.25;32.50;;;;;19.39;44.40;102388.47;4938704;28;45462;-69
2022/04/29 11:02:28;;;;;;;;;41.50;32.75;;;;;19.44;44.03;102391.69;4937875;28;45313;-70
2022/04/29 11:04:55;;;;;;;;;45.00;36.00;;;;;19.46;43.57;102379.91;4936755;28;45395;-69
2022/04/29 11:07:44;;;;;;;;;44.50;33.25;;;;;19.47;43.16;102386.97;4934865;28;45401;-68
2022/04/29 11:10:16;;;;;;;;;44.75;35.25;;;;;19.52;43.63;102389.31;4935459;28;45268;-68
2022/04/29 11:12:54;;;;;;;;;37.50;31.00;;;;;19.62;44.23;102386.88;4935888;28;45594;-68
2022/04/29 11:15:23;;;;;;;;;46.75;36.75;;;;;19.71;43.52;102381.72;4939053;28;45431;-68
2022/04/29 11:17:49;;;;;;;;;43.50;35.00;;;;;19.80;43.51;102397.09;4942952;28;46381;-67
2022/04/29 11:20:25;;;;;;;;;35.50;30.50;;;;;19.82;42.89;102391.63;4941708;28;45327;-68
2022/04/29 11:25:56;;;;;;;;;43.75;34.25;;;;;19.92;43.35;102378.47;4943530;28;45257;-65
2022/04/29 11:28:22;;;;;;;;;37.50;33.25;;;;;19.93;42.67;102386.38;4943305;28;45271;-65
2022/04/29 11:30:49;;;;;;;;;43.50;33.00;;;;;19.91;42.72;102384.81;4943666;28;45351;-66
2022/04/29 11:33:21;;;;;;;;;39.25;32.75;;;;;19.87;42.12;102388.66;4943539;28;45499;-65
2022/04/29 11:36:00;;;;;;;;;43.75;34.25;;;;;19.92;42.06;102384.69;4943690;28;45267;-66
2022/04/29 11:38:26;;;;;;;;;40.50;34.00;;;;;19.96;41.64;102383.47;4943467;28;46159;-65
2022/04/29 11:40:52;;;;;;;;;32.75;30.00;;;;;20.05;41.99;102377.44;4942144;28;45861;-66